createdAt,value
2017-12-19T12:51:48.036Z,67.08
2017-12-19T12:54:07.106Z,67.21
2017-12-19T12:55:07.276Z,67.50
2017-12-19T12:56:58.523Z,67.79
2017-12-19T12:58:00.099Z,67.69
2017-12-19T12:59:54.413Z,67.79
2017-12-19T13:00:51.687Z,67.97
2017-12-19T13:02:47.298Z,68.26
2017-12-19T13:03:48.101Z,68.16
2017-12-19T13:05:41.356Z,68.07
2017-12-19T13:06:41.541Z,68.44
2017-12-19T13:08:33.968Z,68.16
2017-12-19T13:09:35.059Z,67.59
2017-12-19T13:11:28.638Z,67.50
2017-12-19T13:12:28.622Z,68.35
2017-12-19T13:14:21.269Z,68.54
2017-12-19T13:15:22.180Z,68.26
2017-12-19T13:17:15.719Z,67.79
2017-12-19T13:18:15.633Z,68.26
2017-12-19T13:20:08.412Z,68.26
2017-12-19T13:21:09.294Z,68.54
2017-12-19T13:23:02.789Z,68.07
2017-12-19T13:24:02.848Z,68.26
2017-12-19T13:25:55.554Z,68.26
2017-12-19T13:26:56.398Z,68.73
2017-12-19T13:28:49.989Z,68.07
2017-12-19T13:29:49.937Z,67.79
2017-12-19T13:31:42.725Z,68.26
2017-12-19T13:32:43.676Z,68.26
2017-12-19T13:34:37.141Z,68.35
2017-12-19T13:35:37.046Z,67.97
2017-12-19T13:37:29.697Z,68.44
2017-12-19T13:38:30.650Z,67.88
2017-12-19T13:40:23.160Z,68.64
2017-12-19T13:41:24.198Z,68.07
2017-12-19T13:43:16.834Z,68.64
2017-12-19T13:44:17.775Z,68.35
2017-12-19T13:46:10.399Z,68.73
2017-12-19T13:47:11.269Z,68.26
2017-12-19T13:49:05.419Z,67.97
2017-12-19T13:50:04.841Z,68.26
2017-12-19T13:51:57.569Z,68.54
2017-12-19T13:52:58.487Z,68.07
2017-12-19T13:54:50.932Z,68.44
2017-12-19T13:55:51.965Z,68.44
2017-12-19T13:57:45.557Z,68.44
2017-12-19T13:58:45.590Z,68.44
2017-12-19T14:00:38.212Z,68.44
2017-12-19T14:01:39.096Z,68.44
2017-12-19T14:03:31.576Z,68.54
2017-12-19T14:04:32.700Z,68.16
2017-12-19T14:06:26.271Z,68.44
2017-12-19T14:07:26.221Z,68.73
2017-12-19T14:09:18.874Z,68.54
2017-12-19T14:10:19.754Z,68.07
2017-12-19T14:12:13.305Z,68.16
2017-12-19T14:13:13.358Z,68.44
2017-12-19T14:15:05.938Z,68.16
2017-12-19T14:16:06.862Z,68.54
2017-12-19T14:17:58.370Z,68.64
2017-12-19T14:19:00.433Z,68.54
2017-12-19T14:20:53.161Z,68.64
2017-12-19T14:21:54.006Z,68.64
2017-12-19T14:23:47.580Z,68.54
2017-12-19T14:24:47.568Z,68.54
2017-12-19T14:26:40.087Z,68.73
2017-12-19T14:27:41.123Z,68.54
2017-12-19T14:29:34.538Z,68.64
2017-12-19T14:30:34.685Z,68.54
2017-12-19T14:32:27.249Z,68.54
2017-12-19T14:33:28.231Z,68.26
2017-12-19T14:35:21.801Z,68.54
2017-12-19T14:36:21.765Z,68.35
2017-12-19T14:38:14.407Z,68.35
2017-12-19T14:39:15.336Z,67.50
2017-12-19T14:41:08.720Z,68.26
2017-12-19T14:42:08.996Z,68.26
2017-12-19T14:44:01.481Z,68.26
2017-12-19T14:46:15.834Z,68.64
2017-12-19T14:47:15.876Z,68.44
2017-12-19T14:49:08.513Z,68.26
2017-12-19T14:50:06.959Z,68.26
2017-12-19T14:52:02.990Z,68.35
2017-12-19T14:53:03.013Z,68.35
2017-12-19T14:54:57.111Z,68.26
2017-12-19T14:55:56.533Z,67.97
2017-12-19T14:57:49.214Z,68.44
2017-12-19T14:58:50.080Z,68.35
2017-12-19T15:00:42.663Z,68.16
2017-12-19T15:01:44.555Z,68.35
2017-12-19T15:03:37.165Z,68.16
2017-12-19T15:04:37.185Z,68.07
2017-12-19T15:06:29.849Z,68.07
2017-12-19T15:07:29.055Z,68.35
2017-12-19T15:09:23.343Z,67.69
2017-12-19T15:10:24.347Z,67.40
2017-12-19T15:12:17.834Z,67.79
2017-12-19T15:13:17.848Z,67.69
2017-12-19T15:15:10.553Z,67.69
2017-12-19T15:16:11.403Z,67.59
2017-12-19T15:18:04.853Z,67.85
2017-12-19T15:19:05.016Z,67.69
2017-12-19T15:20:57.685Z,67.65
2017-12-19T15:21:58.573Z,67.94
2017-12-19T15:23:51.257Z,67.56
2017-12-19T15:24:52.038Z,67.88
2017-12-19T15:26:45.638Z,67.97
2017-12-19T15:27:45.704Z,67.97
2017-12-19T15:29:38.270Z,67.75
2017-12-19T15:30:39.267Z,67.85
2017-12-19T15:32:32.827Z,67.59
2017-12-19T15:33:32.827Z,67.97
2017-12-19T15:35:25.387Z,67.59
2017-12-19T15:36:26.329Z,67.97
2017-12-19T15:38:18.825Z,67.97
2017-12-19T15:39:19.958Z,68.07
2017-12-19T15:41:13.437Z,68.13
2017-12-19T15:42:11.427Z,67.94
2017-12-19T15:44:06.096Z,68.35
2017-12-19T15:45:07.039Z,68.26
2017-12-19T15:46:59.672Z,67.97
2017-12-19T15:48:00.577Z,68.41
2017-12-19T15:49:54.137Z,68.51
2017-12-19T15:50:54.117Z,68.32
2017-12-19T15:52:46.805Z,68.73
2017-12-19T15:53:47.670Z,68.64
2017-12-19T15:55:40.264Z,68.44
2017-12-19T15:56:41.318Z,68.54
2017-12-19T15:58:33.846Z,68.26
2017-12-19T15:59:34.762Z,68.51
2017-12-19T16:01:28.364Z,68.32
2017-12-19T16:02:28.381Z,68.44
2017-12-19T16:04:21.227Z,68.16
2017-12-19T16:05:21.951Z,68.54
2017-12-19T16:07:15.464Z,68.23
2017-12-19T16:08:15.513Z,68.70
2017-12-19T16:10:07.999Z,68.26
2017-12-19T16:11:09.021Z,68.60
2017-12-19T16:13:02.580Z,68.51
2017-12-19T16:14:02.574Z,68.60
2017-12-19T16:15:55.040Z,68.32
2017-12-19T16:16:56.108Z,68.41
2017-12-19T16:18:49.688Z,68.60
2017-12-19T16:19:49.692Z,68.51
2017-12-19T16:21:42.352Z,68.35
2017-12-19T16:22:43.241Z,68.60
2017-12-19T16:24:34.596Z,68.51
2017-12-19T16:25:36.769Z,68.70
2017-12-19T16:27:29.482Z,68.32
2017-12-19T16:28:30.415Z,68.51
2017-12-19T16:30:23.052Z,68.60
2017-12-19T16:31:23.943Z,68.51
2017-12-19T16:33:18.036Z,68.54
2017-12-19T16:34:17.493Z,68.70
2017-12-19T16:36:10.124Z,68.44
2017-12-19T16:37:10.991Z,68.64
2017-12-19T16:39:03.280Z,68.44
2017-12-19T16:40:04.596Z,68.44
2017-12-19T16:41:55.213Z,68.32
2017-12-19T16:42:58.121Z,68.60
2017-12-19T16:44:50.943Z,68.13
2017-12-19T16:45:51.707Z,68.23
2017-12-19T16:47:45.244Z,68.04
2017-12-19T16:48:45.240Z,67.65
2017-12-19T16:50:37.743Z,67.50
2017-12-19T16:51:38.812Z,67.56
2017-12-19T16:53:32.377Z,67.27
2017-12-19T16:54:32.374Z,67.46
2017-12-19T16:56:25.042Z,67.08
2017-12-19T16:57:25.946Z,66.23
2017-12-19T16:59:18.572Z,66.42
2017-12-19T17:00:19.445Z,65.95
2017-12-19T17:02:11.900Z,65.66
2017-12-19T17:03:13.038Z,65.09
2017-12-19T17:05:05.663Z,65.75
2017-12-19T17:06:06.675Z,65.95
2017-12-19T17:08:00.112Z,65.37
2017-12-19T17:09:00.115Z,65.66
2017-12-19T17:10:52.671Z,65.95
2017-12-19T17:11:53.703Z,65.66
2017-12-19T17:13:47.229Z,65.66
2017-12-19T17:14:47.230Z,65.56
2017-12-19T17:16:38.552Z,65.00
2017-12-19T17:17:40.790Z,65.00
2017-12-19T17:19:34.320Z,64.81
2017-12-19T17:20:34.383Z,65.19
2017-12-19T17:22:27.016Z,65.00
2017-12-19T17:23:27.956Z,64.52
2017-12-19T17:25:21.462Z,64.62
2017-12-19T17:26:21.507Z,64.71
2017-12-19T17:28:12.665Z,64.52
2017-12-19T17:29:15.042Z,64.71
2017-12-19T17:31:06.588Z,64.62
2017-12-19T17:33:44.065Z,64.81
2017-12-19T17:34:21.982Z,64.43
2017-12-19T17:36:14.507Z,63.29
2017-12-19T17:37:15.554Z,63.29
2017-12-19T17:39:06.204Z,63.39
2017-12-19T17:40:09.087Z,63.39
2017-12-19T17:42:01.535Z,63.39
2017-12-19T17:43:02.691Z,63.29
2017-12-19T17:44:54.976Z,63.39
2017-12-19T17:45:56.206Z,63.57
2017-12-19T17:47:48.883Z,63.10
2017-12-19T17:48:49.752Z,63.57
2017-12-19T17:50:42.427Z,63.67
2017-12-19T17:51:43.365Z,63.48
2017-12-19T17:53:36.059Z,63.29
2017-12-19T17:54:36.900Z,63.29
2017-12-19T17:56:28.450Z,63.76
2017-12-19T17:57:30.430Z,63.76
2017-12-19T17:59:24.586Z,63.57
2017-12-19T18:00:23.995Z,63.67
2017-12-19T18:02:17.579Z,63.76
2017-12-19T18:03:17.542Z,63.86
2017-12-19T18:05:10.346Z,64.14
2017-12-19T18:06:11.166Z,64.33
2017-12-19T18:08:04.025Z,64.05
2017-12-19T18:09:03.126Z,64.14
2017-12-19T18:10:57.367Z,64.14
2017-12-19T18:11:58.209Z,64.24
2017-12-19T18:13:51.811Z,64.33
2017-12-19T18:14:51.784Z,64.33
2017-12-19T18:16:44.458Z,64.43
2017-12-19T18:17:45.335Z,64.71
2017-12-19T18:19:38.920Z,64.90
2017-12-19T18:20:38.901Z,64.52
2017-12-19T18:22:31.577Z,64.71
2017-12-19T18:23:32.455Z,64.71
2017-12-19T18:25:26.694Z,64.81
2017-12-19T18:26:24.310Z,64.71
2017-12-19T18:28:19.639Z,64.52
2017-12-19T18:29:19.561Z,64.52
2017-12-19T18:31:12.106Z,64.62
2017-12-19T18:32:13.123Z,64.62
2017-12-19T18:34:06.698Z,64.81
2017-12-19T18:35:06.683Z,64.52
2017-12-19T18:36:59.243Z,64.62
2017-12-19T18:38:00.245Z,64.52
2017-12-19T18:39:53.766Z,64.90
2017-12-19T18:40:53.817Z,64.90
2017-12-19T18:42:46.470Z,64.81
2017-12-19T18:43:44.670Z,65.19
2017-12-19T18:45:40.970Z,65.19
2017-12-19T18:46:40.915Z,65.09
2017-12-19T18:48:33.554Z,64.81
2017-12-19T18:49:33.581Z,65.28
2017-12-19T18:51:27.851Z,65.09
2017-12-19T18:52:28.017Z,65.09
2017-12-19T18:54:20.608Z,65.19
2017-12-19T18:55:21.584Z,64.81
2017-12-19T18:57:15.158Z,65.28
2017-12-19T18:58:15.120Z,64.90
2017-12-19T19:00:07.765Z,65.09
2017-12-19T19:01:06.232Z,65.09
2017-12-19T19:03:01.110Z,64.90
2017-12-19T19:04:01.411Z,64.81
2017-12-19T19:05:54.895Z,64.90
2017-12-19T19:06:55.840Z,64.90
2017-12-19T19:08:48.512Z,64.90
2017-12-19T19:09:49.382Z,64.90
2017-12-19T19:11:42.956Z,64.90
2017-12-19T19:12:42.899Z,65.09
2017-12-19T19:14:36.410Z,65.00
2017-12-19T19:15:36.453Z,65.09
2017-12-19T19:17:29.908Z,65.37
2017-12-19T19:18:30.017Z,65.28
2017-12-19T19:20:22.732Z,65.19
2017-12-19T19:21:23.576Z,65.28
2017-12-19T19:23:16.299Z,65.00
2017-12-19T19:24:17.135Z,65.19
2017-12-19T19:26:09.831Z,65.09
2017-12-19T19:27:10.687Z,64.90
2017-12-19T19:29:02.458Z,64.90
2017-12-19T19:30:04.247Z,64.90
2017-12-19T19:31:56.887Z,64.90
2017-12-19T19:32:57.848Z,64.81
2017-12-19T19:34:51.383Z,64.90
2017-12-19T19:35:51.361Z,64.90
2017-12-19T19:37:44.012Z,64.81
2017-12-19T19:38:44.966Z,64.71
2017-12-19T19:40:38.476Z,65.00
2017-12-19T19:41:38.488Z,65.09
2017-12-19T19:43:32.627Z,65.00
2017-12-19T19:44:32.050Z,64.90
2017-12-19T19:46:25.638Z,64.90
2017-12-19T19:47:25.580Z,65.00
2017-12-19T19:49:16.331Z,64.81
2017-12-19T19:50:19.187Z,64.81
2017-12-19T19:52:12.742Z,65.37
2017-12-19T19:53:12.731Z,65.19
2017-12-19T19:55:05.201Z,64.90
2017-12-19T19:56:06.261Z,64.81
2017-12-19T19:57:59.824Z,65.00
2017-12-19T19:58:59.818Z,65.09
2017-12-19T20:00:51.222Z,64.90
2017-12-19T20:01:53.379Z,65.28
2017-12-19T20:03:46.928Z,64.90
2017-12-19T20:04:46.946Z,64.52
2017-12-19T20:06:39.595Z,64.24
2017-12-19T20:07:40.499Z,64.81
2017-12-19T20:09:31.187Z,64.71
2017-12-19T20:10:34.034Z,64.43
2017-12-19T20:12:26.760Z,64.90
2017-12-19T20:13:27.592Z,65.19
2017-12-19T20:15:21.116Z,64.90
2017-12-19T20:16:21.178Z,64.81
2017-12-19T20:18:13.819Z,65.09
2017-12-19T20:19:14.714Z,64.90
2017-12-19T20:21:08.254Z,65.37
2017-12-19T20:22:08.317Z,65.00
2017-12-19T20:24:02.410Z,65.47
2017-12-19T20:25:01.879Z,65.37
2017-12-19T20:26:55.330Z,64.90
2017-12-19T20:27:55.571Z,64.81
2017-12-19T20:29:48.122Z,64.81
2017-12-19T20:30:48.975Z,64.90
2017-12-19T20:32:42.521Z,64.81
2017-12-19T20:33:42.527Z,64.90
2017-12-19T20:35:34.297Z,65.28
2017-12-19T20:36:36.048Z,64.52
2017-12-19T20:38:29.434Z,64.81
2017-12-19T20:39:29.620Z,64.43
2017-12-19T20:41:22.356Z,64.81
2017-12-19T20:42:23.205Z,64.71
2017-12-19T20:44:16.730Z,64.71
2017-12-19T20:45:16.760Z,64.62
2017-12-19T20:47:09.364Z,64.52
2017-12-19T20:48:10.317Z,64.71
2017-12-19T20:50:03.841Z,64.62
2017-12-19T20:51:03.851Z,64.62
2017-12-19T20:52:55.148Z,64.52
2017-12-19T20:53:57.405Z,64.97
2017-12-19T20:55:51.635Z,64.78
2017-12-19T20:56:50.939Z,65.06
2017-12-19T20:58:43.614Z,64.81
2017-12-19T20:59:44.508Z,65.16
2017-12-19T21:01:37.162Z,64.78
2017-12-19T21:02:38.064Z,64.78
2017-12-19T21:04:31.617Z,64.49
2017-12-19T21:05:31.676Z,64.78
2017-12-19T21:07:24.271Z,64.40
2017-12-19T21:08:25.168Z,64.30
2017-12-19T21:10:15.922Z,64.30
2017-12-19T21:11:18.734Z,64.01
2017-12-19T21:13:12.293Z,64.11
2017-12-19T21:14:12.278Z,64.11
2017-12-19T21:16:04.979Z,64.01
2017-12-19T21:17:05.840Z,64.11
2017-12-19T21:18:59.396Z,64.30
2017-12-19T21:19:59.411Z,64.11
2017-12-19T21:21:51.901Z,64.11
2017-12-19T21:22:52.960Z,64.20
2017-12-19T21:24:45.660Z,64.40
2017-12-19T21:25:46.530Z,64.30
2017-12-19T21:27:37.244Z,64.01
2017-12-19T21:28:40.066Z,64.11
2017-12-19T21:30:32.164Z,64.11
2017-12-19T21:31:33.622Z,64.49
2017-12-19T21:33:26.322Z,64.78
2017-12-19T21:34:27.180Z,64.78
2017-12-19T21:36:20.787Z,64.68
2017-12-19T21:37:20.730Z,64.68
2017-12-19T21:39:13.201Z,64.49
2017-12-19T21:40:14.291Z,65.16
2017-12-19T21:42:07.854Z,64.87
2017-12-19T21:43:07.877Z,64.87
2017-12-19T21:44:58.582Z,64.97
2017-12-19T21:46:00.542Z,64.87
2017-12-19T21:47:54.957Z,64.97
2017-12-19T21:48:55.000Z,65.25
2017-12-19T21:50:47.711Z,65.44
2017-12-19T21:51:48.512Z,65.25
2017-12-19T21:53:42.153Z,65.53
2017-12-19T21:54:42.073Z,65.91
2017-12-19T21:56:34.777Z,65.82
2017-12-19T21:57:35.663Z,65.91
2017-12-19T21:59:29.189Z,66.20
2017-12-19T22:00:29.172Z,66.10
2017-12-19T22:02:21.923Z,66.58
2017-12-19T22:03:22.738Z,66.39
2017-12-19T22:05:16.305Z,66.58
2017-12-19T22:06:16.317Z,66.96
2017-12-19T22:08:10.438Z,67.05
2017-12-19T22:09:09.857Z,66.96
2017-12-19T22:11:03.398Z,66.48
2017-12-19T22:12:03.406Z,66.86
2017-12-19T22:13:56.177Z,66.96
2017-12-19T22:14:55.673Z,66.77
2017-12-19T22:16:50.372Z,67.05
2017-12-19T22:17:50.514Z,66.58
2017-12-19T22:19:44.667Z,67.05
2017-12-19T22:20:44.099Z,67.24
2017-12-19T22:22:38.126Z,66.96
2017-12-19T22:23:37.646Z,67.33
2017-12-19T22:25:30.293Z,67.14
2017-12-19T22:26:31.635Z,67.24
2017-12-19T22:28:24.674Z,67.52
2017-12-19T22:29:24.744Z,67.43
2017-12-19T22:31:18.938Z,67.43
2017-12-19T22:32:15.686Z,67.43
2017-12-19T22:34:10.993Z,67.33
2017-12-19T22:35:11.880Z,67.24
2017-12-19T22:37:04.531Z,67.62
2017-12-19T22:38:05.419Z,67.43
2017-12-19T22:39:58.974Z,67.81
2017-12-19T22:40:58.973Z,67.62
2017-12-19T22:42:51.658Z,67.62
2017-12-19T22:43:52.530Z,68.00
2017-12-19T22:45:45.164Z,67.62
2017-12-19T22:46:46.533Z,67.71
2017-12-19T22:48:39.641Z,67.71
2017-12-19T22:49:37.011Z,67.62
2017-12-19T22:51:32.367Z,67.81
2017-12-19T22:52:33.235Z,67.81
2017-12-19T22:54:26.675Z,67.90
2017-12-19T22:55:26.759Z,67.81
2017-12-19T22:57:19.454Z,67.62
2017-12-19T22:58:20.328Z,67.52
2017-12-19T23:00:13.007Z,67.33
2017-12-19T23:01:13.917Z,67.71
2017-12-19T23:03:06.597Z,67.52
2017-12-19T23:04:07.447Z,67.24
2017-12-19T23:06:01.041Z,67.43
2017-12-19T23:07:01.000Z,67.43
2017-12-19T23:08:53.716Z,67.81
2017-12-19T23:09:54.563Z,67.71
2017-12-19T23:11:48.093Z,67.43
2017-12-19T23:12:48.097Z,67.62
2017-12-19T23:14:40.634Z,67.14
2017-12-19T23:15:41.686Z,67.62
2017-12-19T23:17:34.612Z,67.33
2017-12-19T23:18:35.227Z,66.86
2017-12-19T23:20:27.871Z,67.05
2017-12-19T23:21:28.757Z,67.24
2017-12-19T23:23:22.923Z,67.05
2017-12-19T23:24:22.318Z,66.86
2017-12-19T23:26:15.930Z,66.96
2017-12-19T23:27:15.884Z,66.86
2017-12-19T23:29:08.575Z,67.14
2017-12-19T23:30:09.449Z,67.05
2017-12-19T23:32:02.990Z,67.33
2017-12-19T23:33:03.007Z,66.77
2017-12-19T23:34:55.662Z,66.96
2017-12-19T23:35:56.563Z,67.14
2017-12-19T23:37:50.032Z,67.14
2017-12-19T23:38:50.129Z,67.14
2017-12-19T23:40:42.835Z,67.05
2017-12-19T23:41:43.670Z,67.14
2017-12-19T23:43:37.182Z,67.24
2017-12-19T23:44:37.269Z,67.05
2017-12-19T23:46:29.933Z,67.33
2017-12-19T23:47:30.770Z,67.52
2017-12-19T23:49:24.926Z,67.43
2017-12-19T23:50:23.568Z,67.24
2017-12-19T23:52:16.233Z,66.96
2017-12-19T23:53:16.990Z,67.05
2017-12-19T23:55:11.441Z,67.14
2017-12-19T23:56:11.449Z,66.96
2017-12-19T23:58:04.138Z,67.24
2017-12-19T23:59:05.046Z,67.33
